createdAt,value
2023-06-16T02:32:53.386Z,4.82
2023-06-16T02:35:29.321Z,6.30
2023-06-16T02:37:56.850Z,5.22
2023-06-16T02:40:25.709Z,5.30
2023-06-16T02:42:53.122Z,4.93
2023-06-16T02:45:20.545Z,5.40
2023-06-16T02:47:50.610Z,4.65
2023-06-16T02:50:18.530Z,5.53
2023-06-16T02:52:46.238Z,5.53
2023-06-16T02:55:17.366Z,4.95
2023-06-16T02:57:50.274Z,5.28
2023-06-16T03:00:19.440Z,5.43
2023-06-16T03:03:08.455Z,5.30
2023-06-16T03:05:37.496Z,5.05
2023-06-16T03:08:07.294Z,5.80
2023-06-16T03:10:34.875Z,5.47
2023-06-16T03:13:11.510Z,5.97
2023-06-16T03:15:39.140Z,5.20
2023-06-16T03:18:08.037Z,4.93
2023-06-16T03:20:36.143Z,5.97
2023-06-16T03:23:15.853Z,4.63
2023-06-16T03:25:43.309Z,6.00
2023-06-16T03:28:13.761Z,7.55
2023-06-16T03:30:41.404Z,5.93
2023-06-16T03:33:13.191Z,7.45
2023-06-16T03:35:44.307Z,5.85
2023-06-16T03:38:37.860Z,5.47
2023-06-16T03:41:05.264Z,5.10
2023-06-16T03:43:32.688Z,6.35
2023-06-16T03:46:00.507Z,5.80
2023-06-16T03:48:31.297Z,5.70
2023-06-16T03:51:02.434Z,5.55
2023-06-16T03:53:29.861Z,5.85
2023-06-16T03:55:57.383Z,5.13
2023-06-16T03:58:25.765Z,5.95
2023-06-16T04:00:53.397Z,5.43
2023-06-16T04:03:23.390Z,5.28
2023-06-16T04:05:52.452Z,5.68
2023-06-16T04:08:19.898Z,5.43
2023-06-16T04:10:47.581Z,6.82
2023-06-16T04:13:15.013Z,5.38
2023-06-16T04:15:44.411Z,5.50
2023-06-16T04:18:14.857Z,5.78
2023-06-16T04:20:42.278Z,5.30
2023-06-16T04:23:11.248Z,5.30
2023-06-16T04:25:39.415Z,6.15
2023-06-16T04:28:07.380Z,6.03
2023-06-16T04:33:03.606Z,7.03
2023-06-16T04:35:34.800Z,6.63
2023-06-16T04:38:04.836Z,6.32
2023-06-16T04:40:35.231Z,6.93
2023-06-16T04:43:03.236Z,5.60
2023-06-16T04:45:31.090Z,5.93
2023-06-16T04:47:58.580Z,6.15
2023-06-16T04:50:26.016Z,7.13
2023-06-16T04:52:54.094Z,7.05
2023-06-16T04:55:22.024Z,7.32
2023-06-16T05:00:18.746Z,8.27
2023-06-16T05:02:46.477Z,8.20
2023-06-16T05:05:14.117Z,7.63
2023-06-16T05:07:41.569Z,8.65
2023-06-16T05:10:09.700Z,7.93
2023-06-16T05:12:38.141Z,8.07
2023-06-16T05:15:06.219Z,8.68
2023-06-16T05:17:35.683Z,7.47
2023-06-16T05:20:04.330Z,8.85
2023-06-16T05:22:34.591Z,6.78
2023-06-16T05:25:02.005Z,7.70
2023-06-16T05:27:29.714Z,7.25
2023-06-16T05:30:00.850Z,6.90
2023-06-16T05:32:30.086Z,8.02
2023-06-16T05:34:59.047Z,6.07
2023-06-16T05:37:29.264Z,6.45
2023-06-16T05:39:56.895Z,5.88
2023-06-16T05:42:25.656Z,7.03
2023-06-16T05:44:53.118Z,6.53
2023-06-16T05:47:20.954Z,5.55
2023-06-16T05:49:49.704Z,5.78
2023-06-16T05:52:18.509Z,6.05
2023-06-16T05:54:46.324Z,5.60
2023-06-16T05:57:21.842Z,6.00
2023-06-16T06:02:20.435Z,5.70
2023-06-16T06:04:48.423Z,6.25
2023-06-16T06:07:17.951Z,7.10
2023-06-16T06:09:45.681Z,6.75
2023-06-16T06:12:13.327Z,8.88
2023-06-16T06:14:40.956Z,8.00
2023-06-16T06:17:08.406Z,6.68
2023-06-16T06:19:35.850Z,7.55
2023-06-16T06:22:04.482Z,6.97
2023-06-16T06:24:33.650Z,7.20
2023-06-16T06:27:02.710Z,8.50
2023-06-16T06:29:30.144Z,6.78
2023-06-16T06:31:57.718Z,7.13
2023-06-16T06:34:25.146Z,6.28
2023-06-16T06:36:52.562Z,5.85
2023-06-16T06:39:20.741Z,7.15
2023-06-16T06:41:49.896Z,5.60
2023-06-16T06:44:23.027Z,5.90
2023-06-16T06:46:51.526Z,5.63
2023-06-16T06:49:20.658Z,5.90
2023-06-16T06:51:48.038Z,6.50
2023-06-16T06:54:15.593Z,7.25
2023-06-16T06:56:43.004Z,7.13
2023-06-16T06:59:11.772Z,6.55
2023-06-16T07:01:39.349Z,7.05
2023-06-16T07:04:07.064Z,5.82
2023-06-16T07:06:34.706Z,5.55
2023-06-16T07:09:02.116Z,5.32
2023-06-16T07:11:29.546Z,6.97
2023-06-16T07:13:56.947Z,5.78
2023-06-16T07:16:25.787Z,5.53
2023-06-16T07:18:53.376Z,5.55
2023-06-16T07:21:20.774Z,4.45
2023-06-16T07:23:48.242Z,4.35
2023-06-16T07:26:15.656Z,4.82
2023-06-16T07:28:43.932Z,4.32
2023-06-16T07:31:12.030Z,4.47
2023-06-16T07:33:40.809Z,4.47
2023-06-16T07:36:08.333Z,3.97
2023-06-16T07:38:36.000Z,4.93
2023-06-16T07:43:32.347Z,4.30
2023-06-16T07:45:59.762Z,3.90
2023-06-16T07:48:27.262Z,3.50
2023-06-16T07:50:56.039Z,3.80
2023-06-16T07:53:23.589Z,3.38
2023-06-16T07:55:50.987Z,3.55
2023-06-16T07:58:18.355Z,3.40
2023-06-16T08:00:45.753Z,3.33
2023-06-16T08:03:13.326Z,4.05
2023-06-16T08:05:41.596Z,3.60
2023-06-16T08:08:10.404Z,3.20
2023-06-16T08:10:37.819Z,3.45
2023-06-16T08:13:05.261Z,3.30
2023-06-16T08:15:32.707Z,3.35
2023-06-16T08:18:00.182Z,3.38
2023-06-16T08:20:27.745Z,3.53
2023-06-16T08:22:55.139Z,3.28
2023-06-16T08:25:24.176Z,3.65
2023-06-16T08:27:51.620Z,3.33
2023-06-16T08:30:20.495Z,2.85
2023-06-16T08:32:48.063Z,3.38
2023-06-16T08:35:15.531Z,3.22
2023-06-16T08:37:42.944Z,3.10
2023-06-16T08:40:11.736Z,3.65
2023-06-16T08:42:42.256Z,3.70
2023-06-16T08:45:10.983Z,3.40
2023-06-16T08:47:39.980Z,2.80
2023-06-16T08:50:08.408Z,3.08
2023-06-16T08:52:44.071Z,3.22
2023-06-16T08:55:14.778Z,3.45
2023-06-16T08:57:47.513Z,4.05
2023-06-16T09:00:15.632Z,3.60
2023-06-16T09:02:43.321Z,3.47
2023-06-16T09:07:40.505Z,3.13
2023-06-16T09:10:08.649Z,3.28
2023-06-16T09:12:36.513Z,3.80
2023-06-16T09:15:07.609Z,5.10
2023-06-16T09:17:35.723Z,3.33
2023-06-16T09:20:07.576Z,3.05
2023-06-16T09:22:35.022Z,3.17
2023-06-16T09:25:05.347Z,3.10
2023-06-16T09:27:44.266Z,3.55
2023-06-16T09:30:14.844Z,3.47
2023-06-16T09:32:42.791Z,3.15
2023-06-16T09:35:16.932Z,3.13
2023-06-16T09:37:44.879Z,3.38
2023-06-16T09:40:12.901Z,2.97
2023-06-16T09:42:40.536Z,3.42
2023-06-16T09:47:38.018Z,3.47
2023-06-16T09:50:07.081Z,3.40
2023-06-16T09:52:34.566Z,2.95
2023-06-16T09:55:02.581Z,2.83
2023-06-16T09:57:36.368Z,3.67
2023-06-16T10:00:10.022Z,3.00
2023-06-16T10:02:40.229Z,3.28
2023-06-16T10:05:10.999Z,2.90
2023-06-16T10:07:38.945Z,3.42
2023-06-16T10:10:09.056Z,2.72
2023-06-16T10:12:38.053Z,3.20
2023-06-16T10:15:05.784Z,2.88
2023-06-16T10:20:02.200Z,3.50
2023-06-16T10:22:29.686Z,3.28
2023-06-16T10:24:57.154Z,3.00
2023-06-16T10:27:24.855Z,4.45
2023-06-16T10:29:52.899Z,3.92
2023-06-16T10:32:20.531Z,3.22
2023-06-16T10:34:50.371Z,3.10
2023-06-16T10:37:20.051Z,3.42
2023-06-16T10:39:47.728Z,3.65
2023-06-16T10:42:15.866Z,3.47
2023-06-16T10:44:44.487Z,3.97
2023-06-16T10:47:28.214Z,3.13
2023-06-16T10:49:56.820Z,3.20
2023-06-16T10:52:33.598Z,3.38
2023-06-16T10:55:16.386Z,3.08
2023-06-16T10:57:43.837Z,2.97
2023-06-16T11:00:12.978Z,3.22
2023-06-16T11:02:49.250Z,3.67
2023-06-16T11:05:18.180Z,3.45
2023-06-16T11:07:48.654Z,3.33
2023-06-16T11:10:21.830Z,3.53
2023-06-16T11:12:49.608Z,3.38
2023-06-16T11:15:17.039Z,3.58
2023-06-16T11:17:45.541Z,3.42
2023-06-16T11:20:14.300Z,3.03
2023-06-16T11:22:43.829Z,3.63
2023-06-16T11:25:13.964Z,3.03
2023-06-16T11:27:41.580Z,3.00
2023-06-16T11:30:09.674Z,2.97
2023-06-16T11:32:38.523Z,3.40
2023-06-16T11:35:06.699Z,3.58
2023-06-16T11:37:40.778Z,3.33
2023-06-16T11:40:09.349Z,3.30
2023-06-16T11:42:38.114Z,3.50
2023-06-16T11:45:05.964Z,3.15
2023-06-16T11:47:34.094Z,3.20
2023-06-16T11:50:01.512Z,3.78
2023-06-16T11:52:29.068Z,3.30
2023-06-16T11:54:58.376Z,2.80
2023-06-16T11:57:25.803Z,3.60
2023-06-16T11:59:54.663Z,3.08
2023-06-16T12:02:22.466Z,3.40
2023-06-16T12:04:50.250Z,3.08
2023-06-16T12:07:17.694Z,3.45
2023-06-16T12:09:45.097Z,2.90
2023-06-16T12:12:15.001Z,2.90
2023-06-16T12:14:42.686Z,2.95
2023-06-16T12:17:11.552Z,2.80
2023-06-16T12:19:40.500Z,3.25
2023-06-16T12:22:08.867Z,3.33
2023-06-16T12:24:36.443Z,3.20
2023-06-16T12:27:04.986Z,3.25
2023-06-16T12:29:33.058Z,4.25
2023-06-16T12:32:01.587Z,3.35
2023-06-16T12:34:31.389Z,3.25
2023-06-16T12:37:01.747Z,2.90
2023-06-16T12:39:29.457Z,3.15
2023-06-16T12:41:57.881Z,3.35
2023-06-16T12:44:25.562Z,3.30
2023-06-16T12:46:53.460Z,3.08
2023-06-16T12:49:21.448Z,3.30
2023-06-16T12:51:50.209Z,2.58
2023-06-16T12:54:19.496Z,3.00
2023-06-16T12:56:46.880Z,3.03
2023-06-16T12:59:15.995Z,2.78
2023-06-16T13:01:43.591Z,3.03
2023-06-16T13:04:11.133Z,3.47
2023-06-16T13:06:38.638Z,3.13
2023-06-16T13:09:07.443Z,3.50
2023-06-16T13:11:35.644Z,3.42
2023-06-16T13:14:03.484Z,3.13
2023-06-16T13:16:32.196Z,3.03
2023-06-16T13:18:59.963Z,2.80
2023-06-16T13:21:27.354Z,2.92
2023-06-16T13:23:54.788Z,3.30
2023-06-16T13:26:24.188Z,3.50
2023-06-16T13:28:51.672Z,3.08
2023-06-16T13:31:19.068Z,3.47
2023-06-16T13:33:46.537Z,3.03
2023-06-16T13:36:17.476Z,3.10
2023-06-16T13:38:45.303Z,3.10
2023-06-16T13:41:13.832Z,3.53
2023-06-16T13:43:43.416Z,3.65
2023-06-16T13:46:10.941Z,3.72
2023-06-16T13:48:38.468Z,3.05
2023-06-16T13:51:06.050Z,3.40
2023-06-16T13:53:33.521Z,3.42
2023-06-16T13:56:00.989Z,3.30
2023-06-16T13:58:28.547Z,3.33
2023-06-16T14:00:57.302Z,3.35
2023-06-16T14:03:27.069Z,3.03
2023-06-16T14:05:54.866Z,3.10
2023-06-16T14:08:22.292Z,3.47
2023-06-16T14:13:18.546Z,3.53
2023-06-16T14:15:46.007Z,3.45
2023-06-16T14:20:42.409Z,3.45
2023-06-16T14:23:09.911Z,3.50
2023-06-16T14:28:06.053Z,3.40
2023-06-16T14:30:38.971Z,4.15
2023-06-16T14:35:34.213Z,2.92
2023-06-16T14:40:30.645Z,3.50
2023-06-16T14:42:58.048Z,3.30
2023-06-16T14:50:20.851Z,3.35
2023-06-16T14:52:48.494Z,3.63
2023-06-16T14:57:44.644Z,3.80
2023-06-16T15:00:12.636Z,3.38
2023-06-16T15:02:40.128Z,3.47
2023-06-16T15:07:34.980Z,4.68
2023-06-16T15:19:53.076Z,3.50
2023-06-16T15:22:20.559Z,3.63
2023-06-16T15:24:47.972Z,3.58
2023-06-16T15:27:15.457Z,3.70
2023-06-16T15:34:38.769Z,4.90
2023-06-16T15:37:07.916Z,3.50
2023-06-16T15:39:35.461Z,3.45
2023-06-16T15:44:31.455Z,3.92
2023-06-16T15:46:58.859Z,3.80
2023-06-16T15:49:26.298Z,4.30
2023-06-16T15:51:53.803Z,3.40
2023-06-16T15:54:22.553Z,3.63
2023-06-16T15:56:49.974Z,3.22
2023-06-16T15:59:17.471Z,3.88
2023-06-16T16:01:45.670Z,3.53
2023-06-16T16:04:13.322Z,3.95
2023-06-16T16:11:40.902Z,3.60
2023-06-16T16:14:09.188Z,4.78
2023-06-16T16:16:36.629Z,3.47
2023-06-16T16:19:04.061Z,3.72
2023-06-16T16:21:31.892Z,3.90
2023-06-16T16:23:59.379Z,4.25
2023-06-16T16:26:26.856Z,3.35
2023-06-16T16:28:55.678Z,3.60
2023-06-16T16:31:23.748Z,3.30
2023-06-16T16:33:51.213Z,3.78
2023-06-16T16:36:19.624Z,5.35
2023-06-16T16:38:47.033Z,3.70
2023-06-16T16:41:14.434Z,3.90
2023-06-16T16:43:41.828Z,3.63
2023-06-16T16:46:10.774Z,3.65
2023-06-16T16:48:38.201Z,4.25
2023-06-16T16:51:06.521Z,3.63
2023-06-16T16:53:34.046Z,3.55
2023-06-16T16:58:28.759Z,3.80
2023-06-16T17:00:56.136Z,3.53
2023-06-16T17:03:25.418Z,3.45
2023-06-16T17:05:52.849Z,3.55
2023-06-16T17:08:20.318Z,3.60
2023-06-16T17:10:47.716Z,4.07
2023-06-16T17:13:15.121Z,3.85
2023-06-16T17:15:42.572Z,3.88
2023-06-16T17:18:10.041Z,3.47
2023-06-16T17:20:38.801Z,3.90
2023-06-16T17:23:06.307Z,3.88
2023-06-16T17:25:33.725Z,3.53
2023-06-16T17:28:01.264Z,3.85
2023-06-16T17:30:29.252Z,3.90
2023-06-16T17:33:00.022Z,3.80
2023-06-16T17:35:28.222Z,3.88
2023-06-16T17:37:57.103Z,3.95
2023-06-16T17:40:24.564Z,4.72
2023-06-16T17:42:51.977Z,3.78
2023-06-16T17:45:19.394Z,3.58
2023-06-16T17:47:47.179Z,3.97
2023-06-16T17:50:14.830Z,3.88
2023-06-16T17:55:11.231Z,3.83
2023-06-16T17:57:38.651Z,3.50
2023-06-16T18:00:07.798Z,3.92
2023-06-16T18:02:42.390Z,3.40
2023-06-16T18:05:10.364Z,3.85
2023-06-16T18:07:39.018Z,3.70
2023-06-16T18:10:06.978Z,3.80
2023-06-16T18:12:35.736Z,4.03
2023-06-16T18:15:03.303Z,4.63
2023-06-16T18:17:30.759Z,4.18
2023-06-16T18:19:58.357Z,3.88
2023-06-16T18:22:25.765Z,5.80
2023-06-16T18:24:53.163Z,4.53
2023-06-16T18:27:20.613Z,3.95
2023-06-16T18:29:49.791Z,4.00
2023-06-16T18:32:17.201Z,3.95
2023-06-16T18:34:44.643Z,4.10
2023-06-16T18:37:13.197Z,3.80
2023-06-16T18:39:40.636Z,3.72
2023-06-16T18:42:09.462Z,3.80
2023-06-16T18:44:36.897Z,3.72
2023-06-16T18:47:10.095Z,3.70
2023-06-16T18:49:37.690Z,3.50
2023-06-16T18:52:05.366Z,4.28
2023-06-16T18:57:00.444Z,4.18
2023-06-16T18:59:29.644Z,3.70
2023-06-16T19:01:58.654Z,4.07
2023-06-16T19:04:27.445Z,4.13
2023-06-16T19:06:54.923Z,3.53
2023-06-16T19:09:22.310Z,3.83
2023-06-16T19:11:49.780Z,4.22
2023-06-16T19:14:17.235Z,4.22
2023-06-16T19:16:44.637Z,3.63
2023-06-16T19:19:12.038Z,3.53
2023-06-16T19:21:40.769Z,3.92
2023-06-16T19:24:08.290Z,3.60
2023-06-16T19:26:35.694Z,3.28
2023-06-16T19:29:03.175Z,3.20
2023-06-16T19:31:31.198Z,3.65
2023-06-16T19:33:59.106Z,3.58
2023-06-16T19:36:26.510Z,3.33
2023-06-16T19:38:56.631Z,4.22
2023-06-16T19:41:25.466Z,3.15
2023-06-16T19:43:52.900Z,3.60
2023-06-16T19:46:20.309Z,4.03
2023-06-16T19:48:47.785Z,3.70
2023-06-16T19:51:15.359Z,3.60
2023-06-16T19:53:42.759Z,3.97
2023-06-16T19:56:11.480Z,3.78
2023-06-16T19:58:38.920Z,3.88
2023-06-16T20:01:06.904Z,4.60
2023-06-16T20:03:34.371Z,4.25
2023-06-16T20:06:01.972Z,3.50
2023-06-16T20:08:29.365Z,3.92
2023-06-16T20:10:56.852Z,3.72
2023-06-16T20:13:25.607Z,4.03
2023-06-16T20:15:53.002Z,4.03
2023-06-16T20:18:20.756Z,4.28
2023-06-16T20:23:17.329Z,4.38
2023-06-16T20:25:46.045Z,4.20
2023-06-16T20:28:13.625Z,3.95
2023-06-16T20:30:42.469Z,3.38
2023-06-16T20:33:10.876Z,3.88
2023-06-16T20:35:38.315Z,3.65
2023-06-16T20:38:05.744Z,4.00
2023-06-16T20:40:34.279Z,3.65
2023-06-16T20:43:01.780Z,4.18
2023-06-16T20:45:29.246Z,4.40
2023-06-16T20:47:58.012Z,3.80
2023-06-16T20:50:26.857Z,3.80
2023-06-16T20:52:54.587Z,3.85
2023-06-16T20:55:22.162Z,4.00
2023-06-16T20:57:49.930Z,4.47
2023-06-16T21:02:45.891Z,3.72
2023-06-16T21:05:14.784Z,4.13
2023-06-16T21:07:45.179Z,4.22
2023-06-16T21:10:13.393Z,4.32
2023-06-16T21:12:40.834Z,4.53
2023-06-16T21:15:10.070Z,4.78
2023-06-16T21:17:37.547Z,4.63
2023-06-16T21:20:07.586Z,5.07
2023-06-16T21:22:36.383Z,4.70
2023-06-16T21:25:04.872Z,4.68
2023-06-16T21:27:32.859Z,4.45
2023-06-16T21:30:00.684Z,4.95
2023-06-16T21:34:57.794Z,4.68
2023-06-16T21:37:25.890Z,4.70
2023-06-16T21:40:08.683Z,4.28
2023-06-16T21:42:37.370Z,4.50
2023-06-16T21:45:05.302Z,4.90
2023-06-16T21:47:32.714Z,4.55
2023-06-16T21:50:03.498Z,4.75
2023-06-16T21:52:31.524Z,4.88
2023-06-16T21:55:01.400Z,4.93
2023-06-16T21:57:29.297Z,5.10
2023-06-16T21:59:56.826Z,5.07
2023-06-16T22:02:24.437Z,5.13
2023-06-16T22:04:52.240Z,5.25
2023-06-16T22:07:21.240Z,5.07
2023-06-16T22:09:49.272Z,4.80
2023-06-16T22:14:46.965Z,4.90
2023-06-16T22:17:14.677Z,5.07
2023-06-16T22:19:42.957Z,5.00
2023-06-16T22:22:11.021Z,6.47
2023-06-16T22:24:39.441Z,4.32
2023-06-16T22:27:20.317Z,5.00
2023-06-16T22:29:50.064Z,4.90
2023-06-16T22:32:17.724Z,5.65
2023-06-16T22:34:45.264Z,5.38
2023-06-16T22:37:15.056Z,5.45
2023-06-16T22:39:43.279Z,5.20
2023-06-16T22:42:12.217Z,6.00
2023-06-16T22:44:39.775Z,5.43
2023-06-16T22:47:09.407Z,5.35
2023-06-16T22:49:37.049Z,6.00
2023-06-16T22:52:05.481Z,5.35
2023-06-16T22:54:32.914Z,5.85
2023-06-16T22:57:00.705Z,5.40
2023-06-16T22:59:28.149Z,5.57
2023-06-16T23:01:57.765Z,5.45
2023-06-16T23:04:26.696Z,5.30
2023-06-16T23:06:54.850Z,5.53
2023-06-16T23:09:22.277Z,5.28
2023-06-16T23:11:49.779Z,5.68
2023-06-16T23:14:17.261Z,5.38
2023-06-16T23:16:44.694Z,5.68
2023-06-16T23:19:13.250Z,5.70
2023-06-16T23:21:44.023Z,5.65
2023-06-16T23:24:11.976Z,5.57
2023-06-16T23:26:45.866Z,5.55
2023-06-16T23:29:18.781Z,5.68
2023-06-16T23:31:46.614Z,5.53
2023-06-16T23:34:14.193Z,7.00
2023-06-16T23:36:43.005Z,5.60
2023-06-16T23:39:11.596Z,5.72
2023-06-16T23:41:39.271Z,6.00
2023-06-16T23:44:06.694Z,5.70
2023-06-16T23:46:34.186Z,5.43
2023-06-16T23:49:01.801Z,6.03
2023-06-16T23:51:29.279Z,6.32
2023-06-16T23:53:58.022Z,5.78
2023-06-16T23:56:25.487Z,6.07
2023-06-16T23:58:52.977Z,5.93
